createdAt,value
2019-01-17T00:00:42.420Z,4.64
2019-01-17T00:10:06.685Z,4.82
2019-01-17T00:16:24.145Z,4.74
2019-01-17T00:19:17.871Z,4.75
2019-01-17T00:22:23.079Z,4.72
2019-01-17T00:25:28.561Z,4.68
2019-01-17T00:28:23.222Z,4.63
2019-01-17T00:50:24.931Z,4.53
2019-01-17T00:53:29.520Z,4.51
2019-01-17T01:02:35.121Z,4.50
2019-01-17T01:05:39.839Z,4.52
2019-01-17T01:08:34.489Z,4.55
2019-01-17T01:11:34.503Z,4.59
2019-01-17T01:14:27.187Z,4.63
2019-01-17T01:39:48.634Z,5.25
2019-01-17T01:42:38.355Z,5.24
2019-01-17T01:45:43.751Z,5.96
2019-01-17T02:01:15.948Z,5.41
2019-01-17T02:04:11.158Z,5.42
2019-01-17T02:06:58.154Z,5.42
2019-01-17T02:09:45.337Z,5.44
2019-01-17T02:19:01.532Z,5.40
2019-01-17T02:24:55.386Z,6.15
2019-01-17T02:27:42.924Z,5.68
2019-01-17T02:30:30.261Z,5.60
2019-01-17T02:33:17.575Z,5.58
2019-01-17T02:36:04.954Z,5.60
2019-01-17T02:38:52.396Z,5.62
2019-01-17T02:41:40.028Z,5.64
2019-01-17T02:44:29.011Z,5.65
2019-01-17T02:47:14.528Z,6.34
2019-01-17T03:05:37.168Z,5.75
2019-01-17T03:17:43.909Z,5.82
2019-01-17T03:20:31.284Z,5.85
2019-01-17T03:23:18.647Z,5.86
2019-01-17T03:32:18.757Z,5.87
2019-01-17T03:50:39.298Z,6.09
2019-01-17T03:53:27.539Z,6.09
2019-01-17T03:56:21.569Z,6.08
2019-01-17T04:05:15.961Z,6.06
2019-01-17T04:11:10.249Z,6.06
2019-01-17T04:13:57.602Z,6.07
2019-01-17T04:16:44.550Z,6.07
2019-01-17T04:19:48.626Z,6.77
2019-01-17T04:22:35.423Z,6.29
2019-01-17T04:25:23.499Z,6.20
2019-01-17T04:40:05.025Z,7.21
2019-01-17T04:49:04.286Z,6.48
2019-01-17T04:51:51.682Z,6.37
2019-01-17T05:07:03.994Z,6.31
2019-01-17T05:09:51.072Z,6.32
2019-01-17T05:12:38.039Z,6.30
2019-01-17T05:15:25.307Z,6.29
2019-01-17T05:18:14.096Z,6.31
2019-01-17T05:21:01.738Z,6.27
2019-01-17T05:23:49.525Z,6.29
2019-01-17T05:26:37.479Z,6.27
2019-01-17T05:29:24.767Z,6.28
2019-01-17T05:32:12.091Z,6.34
2019-01-17T05:34:59.650Z,6.34
2019-01-17T05:37:47.070Z,6.35
2019-01-17T05:43:41.860Z,6.36
2019-01-17T05:52:45.047Z,7.53
2019-01-17T05:55:33.418Z,6.91
2019-01-17T06:07:41.643Z,6.53
2019-01-17T06:10:28.971Z,6.51
2019-01-17T06:13:16.518Z,6.49
2019-01-17T06:16:04.205Z,6.47
2019-01-17T06:18:53.196Z,6.46
2019-01-17T06:21:40.539Z,6.45
2019-01-17T06:27:34.353Z,6.41
2019-01-17T06:30:21.789Z,6.39
2019-01-17T06:33:09.268Z,6.40
2019-01-17T06:35:57.951Z,6.41
2019-01-17T06:38:45.725Z,6.40
2019-01-17T06:41:33.151Z,6.44
2019-01-17T06:44:21.115Z,6.44
2019-01-17T06:47:08.752Z,6.45
2019-01-17T06:49:56.695Z,7.16
2019-01-17T06:52:43.911Z,6.69
2019-01-17T06:55:34.574Z,6.62
2019-01-17T06:58:18.595Z,6.59
2019-01-17T07:01:06.072Z,6.58
2019-01-17T07:03:53.585Z,6.55
2019-01-17T07:06:40.914Z,7.26
2019-01-17T07:09:28.176Z,6.77
2019-01-17T07:12:16.913Z,6.66
2019-01-17T07:15:03.998Z,6.65
2019-01-17T07:24:04.455Z,6.75
2019-01-17T07:26:51.758Z,6.67
2019-01-17T07:42:12.805Z,6.66
2019-01-17T07:45:00.526Z,6.63
2019-01-17T07:50:54.184Z,6.63
2019-01-17T07:53:41.540Z,6.61
2019-01-17T07:56:29.061Z,6.57
2019-01-17T07:59:16.327Z,6.61
2019-01-17T08:05:17.319Z,6.85
2019-01-17T08:08:04.560Z,6.74
2019-01-17T08:10:51.708Z,6.71
2019-01-17T08:16:49.439Z,6.95
2019-01-17T08:22:58.838Z,6.83
2019-01-17T08:25:46.165Z,7.60
2019-01-17T08:28:34.102Z,7.04
2019-01-17T08:31:21.763Z,7.78
2019-01-17T08:34:09.526Z,7.23
2019-01-17T08:43:26.878Z,7.02
2019-01-17T08:46:22.057Z,7.01
2019-01-17T08:49:09.050Z,7.03
2019-01-17T08:51:56.735Z,6.99
2019-01-17T08:54:44.076Z,7.02
2019-01-17T09:10:00.221Z,6.95
2019-01-17T09:15:58.495Z,7.03
2019-01-17T09:18:47.013Z,7.08
2019-01-17T09:30:55.766Z,7.28
2019-01-17T09:33:43.470Z,7.29
2019-01-17T09:36:32.017Z,7.24
2019-01-17T09:39:18.932Z,8.08
2019-01-17T09:42:06.635Z,7.55
2019-01-17T09:44:54.230Z,7.41
2019-01-17T09:47:41.694Z,7.33
2019-01-17T09:50:28.958Z,7.33
2019-01-17T09:53:16.124Z,7.30
2019-01-17T10:05:24.057Z,7.27
2019-01-17T10:08:11.219Z,7.28
2019-01-17T10:10:59.661Z,7.28
2019-01-17T10:13:46.677Z,7.27
2019-01-17T10:36:25.095Z,7.43
2019-01-17T11:06:46.725Z,7.82
2019-01-17T11:09:57.329Z,7.93
2019-01-17T11:16:16.491Z,8.18
2019-01-17T11:19:34.785Z,8.24
2019-01-17T11:28:43.863Z,8.26
2019-01-17T11:31:47.338Z,8.27
2019-01-17T11:34:37.470Z,8.23
2019-01-17T11:37:49.766Z,8.19
2019-01-17T11:47:32.539Z,9.52
2019-01-17T11:57:10.131Z,9.72
2019-01-17T12:03:49.751Z,8.96
2019-01-17T12:06:37.666Z,9.88
2019-01-17T12:09:25.783Z,9.10
2019-01-17T12:12:15.048Z,8.92
2019-01-17T12:15:02.700Z,8.72
2019-01-17T12:17:53.526Z,8.59
2019-01-17T12:20:41.229Z,8.53
2019-01-17T12:23:28.196Z,8.53
2019-01-17T12:26:16.884Z,8.57
2019-01-17T12:29:06.034Z,8.54
2019-01-17T12:31:53.090Z,8.58
2019-01-17T12:34:40.468Z,8.51
2019-01-17T12:37:28.100Z,8.42
2019-01-17T12:40:17.006Z,8.33
2019-01-17T12:43:16.568Z,8.42
2019-01-17T12:46:04.647Z,8.56
2019-01-17T12:48:52.441Z,8.58
2019-01-17T12:51:40.075Z,8.55
2019-01-17T12:54:27.744Z,8.58
2019-01-17T12:57:16.270Z,8.59
2019-01-17T13:00:07.668Z,8.68
2019-01-17T13:05:56.987Z,8.56
2019-01-17T13:08:45.168Z,8.51
2019-01-17T13:11:35.346Z,8.53
2019-01-17T13:14:22.899Z,8.58
2019-01-17T13:17:10.275Z,8.56
2019-01-17T13:19:57.483Z,9.43
2019-01-17T13:22:44.831Z,8.78
2019-01-17T13:25:32.232Z,8.73
2019-01-17T13:28:19.567Z,8.70
2019-01-17T13:31:06.900Z,8.63
2019-01-17T13:33:54.537Z,8.63
2019-01-17T13:36:41.748Z,8.81
2019-01-17T13:39:28.950Z,8.88
2019-01-17T13:42:20.814Z,8.84
2019-01-17T13:45:03.684Z,8.83
2019-01-17T13:47:51.831Z,8.82
2019-01-17T13:50:38.680Z,8.81
2019-01-17T13:53:26.118Z,8.80
2019-01-17T13:56:29.317Z,8.79
2019-01-17T13:59:16.745Z,8.67
2019-01-17T14:02:06.026Z,8.56
2019-01-17T14:04:52.943Z,8.50
2019-01-17T14:07:40.851Z,8.46
2019-01-17T14:10:28.260Z,8.37
2019-01-17T14:13:15.664Z,8.38
2019-01-17T14:16:04.350Z,8.33
2019-01-17T14:18:52.062Z,8.27
2019-01-17T14:21:39.658Z,8.21
2019-01-17T14:24:27.176Z,8.22
2019-01-17T14:27:14.850Z,8.23
2019-01-17T14:33:08.311Z,8.12
2019-01-17T14:35:55.645Z,8.15
2019-01-17T14:38:43.079Z,8.13
2019-01-17T14:41:31.310Z,8.12
2019-01-17T14:44:18.540Z,8.10
2019-01-17T14:47:06.347Z,8.08
2019-01-17T14:49:56.874Z,8.15
2019-01-17T14:52:44.136Z,8.24
2019-01-17T14:55:31.086Z,8.30
2019-01-17T14:58:21.457Z,8.30
2019-01-17T15:01:08.942Z,8.26
2019-01-17T15:07:08.719Z,7.97
2019-01-17T15:09:55.978Z,7.84
2019-01-17T15:12:43.786Z,7.71
2019-01-17T15:15:33.295Z,7.58
2019-01-17T15:18:23.811Z,7.46
2019-01-17T15:21:11.265Z,7.37
2019-01-17T15:27:05.733Z,7.29
2019-01-17T15:33:00.923Z,7.17
2019-01-17T15:35:48.950Z,7.17
2019-01-17T15:38:36.210Z,7.15
2019-01-17T15:41:28.495Z,7.16
2019-01-17T15:44:11.753Z,7.16
2019-01-17T15:46:59.154Z,7.16
2019-01-17T15:49:57.706Z,7.13
2019-01-17T15:52:46.427Z,7.09
2019-01-17T15:55:34.771Z,7.05
2019-01-17T15:58:22.350Z,6.97
2019-01-17T16:07:43.165Z,6.99
2019-01-17T16:10:30.583Z,6.84
2019-01-17T16:13:19.378Z,6.77
2019-01-17T16:16:06.983Z,6.73
2019-01-17T16:18:55.117Z,7.42
2019-01-17T16:21:43.628Z,6.90
2019-01-17T16:27:43.043Z,6.75
2019-01-17T16:30:33.450Z,6.76
2019-01-17T16:33:23.382Z,6.82
2019-01-17T16:36:10.423Z,6.84
2019-01-17T16:38:57.811Z,6.90
2019-01-17T16:41:45.025Z,6.92
2019-01-17T16:44:32.761Z,6.91
2019-01-17T16:47:21.957Z,6.89
2019-01-17T16:50:13.214Z,6.83
2019-01-17T16:53:03.175Z,6.82
2019-01-17T16:55:51.070Z,6.80
2019-01-17T16:58:38.782Z,7.09
2019-01-17T17:01:29.205Z,5.89
2019-01-17T17:04:20.164Z,5.38
2019-01-17T17:13:26.306Z,4.94
2019-01-17T17:16:14.047Z,4.97
2019-01-17T17:19:01.667Z,4.84
2019-01-17T17:34:19.564Z,5.10
2019-01-17T17:37:07.710Z,4.47
2019-01-17T17:39:54.983Z,4.28
2019-01-17T17:42:44.705Z,4.16
2019-01-17T17:45:33.839Z,4.12
2019-01-17T17:48:25.602Z,4.07
2019-01-17T17:54:33.167Z,4.01
2019-01-17T17:57:25.856Z,4.00
2019-01-17T18:00:22.454Z,3.96
2019-01-17T18:03:11.548Z,3.86
2019-01-17T18:05:58.589Z,3.80
2019-01-17T18:08:45.565Z,3.72
2019-01-17T18:11:34.281Z,3.65
2019-01-17T18:14:22.097Z,3.59
2019-01-17T18:17:09.656Z,4.28
2019-01-17T18:19:58.361Z,3.71
2019-01-17T18:22:45.417Z,4.36
2019-01-17T18:25:37.586Z,3.74
2019-01-17T18:28:27.936Z,3.52
2019-01-17T18:31:35.299Z,3.40
2019-01-17T18:34:33.726Z,3.26
2019-01-17T18:37:24.555Z,3.17
2019-01-17T18:40:15.192Z,3.08
2019-01-17T18:43:04.580Z,3.02
2019-01-17T18:46:01.495Z,3.72
2019-01-17T18:51:58.701Z,2.99
2019-01-17T18:54:56.827Z,2.95
2019-01-17T18:57:46.806Z,2.92
2019-01-17T19:00:35.036Z,2.91
2019-01-17T19:03:25.668Z,2.91
2019-01-17T19:06:17.716Z,2.95
2019-01-17T19:09:05.200Z,3.70
2019-01-17T19:11:53.916Z,3.19
2019-01-17T19:14:43.966Z,3.08
2019-01-17T19:17:35.078Z,3.08
2019-01-17T19:29:55.251Z,3.11
2019-01-17T19:32:44.735Z,3.11
2019-01-17T19:35:33.859Z,3.14
2019-01-17T19:38:26.174Z,3.17
2019-01-17T19:41:23.337Z,3.20
2019-01-17T19:44:12.446Z,3.97
2019-01-17T19:53:22.300Z,3.46
2019-01-17T19:56:10.990Z,3.46
2019-01-17T19:59:03.291Z,4.20
2019-01-17T20:01:54.152Z,3.74
2019-01-17T20:07:58.119Z,3.49
2019-01-17T20:10:56.640Z,3.40
2019-01-17T20:13:54.210Z,3.35
2019-01-17T20:16:42.950Z,4.00
2019-01-17T20:19:30.484Z,3.43
2019-01-17T20:22:26.742Z,3.28
2019-01-17T20:25:13.965Z,3.24
2019-01-17T20:28:04.488Z,3.22
2019-01-17T20:30:59.142Z,3.21
2019-01-17T20:33:55.179Z,3.17
2019-01-17T20:36:56.721Z,3.14
2019-01-17T20:39:46.507Z,3.17
2019-01-17T20:42:35.512Z,3.22
2019-01-17T20:45:25.549Z,3.28
2019-01-17T20:48:13.013Z,3.31
2019-01-17T20:51:00.345Z,3.36
2019-01-17T20:53:48.223Z,3.40
2019-01-17T21:02:53.374Z,3.41
2019-01-17T21:05:41.289Z,4.04
2019-01-17T21:08:29.199Z,3.41
2019-01-17T21:11:21.699Z,3.21
2019-01-17T21:14:15.880Z,3.03
2019-01-17T21:17:06.110Z,2.90
2019-01-17T21:19:53.820Z,2.77
2019-01-17T21:22:41.413Z,2.69
2019-01-17T21:25:32.226Z,2.63
2019-01-17T21:28:20.547Z,2.58
2019-01-17T21:31:10.177Z,2.51
2019-01-17T21:33:58.913Z,2.44
2019-01-17T21:36:49.748Z,3.08
2019-01-17T21:39:36.354Z,2.56
2019-01-17T21:45:45.116Z,2.29
2019-01-17T21:48:33.233Z,2.24
2019-01-17T21:51:20.692Z,2.21
2019-01-17T21:54:10.854Z,2.16
2019-01-17T21:57:01.526Z,2.78
2019-01-17T21:59:57.857Z,2.28
2019-01-17T22:02:45.758Z,2.16
2019-01-17T22:05:37.854Z,2.07
2019-01-17T22:08:27.020Z,1.98
2019-01-17T22:11:17.492Z,1.97
2019-01-17T22:14:10.826Z,1.96
2019-01-17T22:17:01.042Z,1.98
2019-01-17T22:19:52.611Z,1.99
2019-01-17T22:22:42.359Z,2.01
2019-01-17T22:28:42.876Z,2.07
2019-01-17T22:31:34.714Z,2.11
2019-01-17T22:34:23.051Z,2.13
2019-01-17T22:37:12.884Z,2.17
2019-01-17T22:40:00.179Z,2.19
2019-01-17T22:42:47.687Z,2.91
2019-01-17T22:45:35.760Z,2.50
2019-01-17T22:48:24.279Z,2.46
2019-01-17T22:51:12.023Z,2.44
2019-01-17T22:53:59.550Z,2.46
2019-01-17T22:56:54.540Z,3.16
2019-01-17T22:59:42.213Z,2.69
2019-01-17T23:02:33.732Z,2.62
2019-01-17T23:05:21.835Z,2.62
2019-01-17T23:08:09.599Z,2.62
2019-01-17T23:10:57.337Z,2.63
2019-01-17T23:13:44.895Z,3.36
2019-01-17T23:16:36.471Z,2.89
2019-01-17T23:19:24.493Z,2.80
2019-01-17T23:22:18.043Z,2.80
2019-01-17T23:25:09.594Z,2.76
2019-01-17T23:28:01.092Z,2.71
2019-01-17T23:30:50.527Z,3.43
2019-01-17T23:33:41.535Z,2.97
2019-01-17T23:36:30.740Z,2.89
2019-01-17T23:39:19.597Z,2.83
2019-01-17T23:42:06.817Z,2.86
2019-01-17T23:44:55.961Z,3.56
2019-01-17T23:47:46.482Z,3.06
2019-01-17T23:50:39.601Z,3.74
2019-01-17T23:53:27.509Z,3.14
2019-01-17T23:56:21.303Z,3.81
2019-01-17T23:59:11.963Z,3.21
